createdAt,value
2019-04-05T00:00:54.223Z,37.40
2019-04-05T00:03:24.061Z,35.67
2019-04-05T00:05:53.886Z,37.67
2019-04-05T00:08:23.683Z,35.33
2019-04-05T00:10:53.678Z,38.27
2019-04-05T00:13:23.499Z,37.97
2019-04-05T00:15:53.386Z,38.03
2019-04-05T00:18:23.212Z,39.13
2019-04-05T00:20:53.000Z,38.90
2019-04-05T00:23:22.849Z,36.90
2019-04-05T00:25:52.675Z,39.20
2019-04-05T00:28:22.501Z,37.27
2019-04-05T00:30:52.294Z,39.17
2019-04-05T00:33:24.958Z,37.20
2019-04-05T00:35:54.858Z,38.20
2019-04-05T00:38:24.806Z,37.63
2019-04-05T00:40:54.784Z,39.43
2019-04-05T00:43:24.708Z,37.70
2019-04-05T00:45:54.552Z,38.13
2019-04-05T00:48:24.512Z,37.63
2019-04-05T00:50:54.348Z,38.57
2019-04-05T00:53:24.256Z,38.37
2019-04-05T00:55:54.509Z,37.43
2019-04-05T00:58:24.330Z,37.63
2019-04-05T01:00:54.107Z,37.90
2019-04-05T01:03:23.972Z,36.80
2019-04-05T01:05:53.804Z,40.13
2019-04-05T01:08:23.614Z,39.60
2019-04-05T01:10:53.585Z,40.63
2019-04-05T01:13:23.500Z,41.70
2019-04-05T01:15:53.296Z,39.17
2019-04-05T01:18:23.130Z,39.40
2019-04-05T01:20:54.489Z,40.03
2019-04-05T01:23:25.764Z,39.27
2019-04-05T01:25:58.542Z,39.70
2019-04-05T01:28:28.424Z,40.80
2019-04-05T01:30:58.236Z,40.47
2019-04-05T01:33:28.053Z,41.20
2019-04-05T01:35:59.309Z,38.37
2019-04-05T01:38:29.358Z,42.07
2019-04-05T01:41:00.168Z,40.00
2019-04-05T01:43:29.938Z,43.67
2019-04-05T01:46:00.575Z,41.60
2019-04-05T01:48:30.452Z,40.13
2019-04-05T01:51:00.271Z,40.33
2019-04-05T01:53:30.132Z,39.20
2019-04-05T01:56:00.021Z,40.10
2019-04-05T01:58:29.981Z,41.60
2019-04-05T02:00:59.806Z,41.63
2019-04-05T02:03:29.803Z,39.63
2019-04-05T02:05:59.631Z,40.57
2019-04-05T02:08:30.169Z,40.63
2019-04-05T02:10:59.934Z,41.37
2019-04-05T02:13:29.739Z,40.30
2019-04-05T02:16:06.244Z,41.57
2019-04-05T02:18:31.063Z,41.80
2019-04-05T02:21:00.868Z,41.00
2019-04-05T02:23:30.666Z,41.17
2019-04-05T02:26:00.559Z,43.10
2019-04-05T02:28:30.620Z,42.43
2019-04-05T02:31:00.417Z,39.57
2019-04-05T02:33:33.004Z,39.07
2019-04-05T02:36:03.378Z,42.03
2019-04-05T02:38:33.211Z,40.87
2019-04-05T02:41:03.765Z,41.37
2019-04-05T02:43:35.633Z,40.40
2019-04-05T02:46:22.217Z,41.73
2019-04-05T02:48:39.089Z,41.07
2019-04-05T02:51:10.525Z,42.60
2019-04-05T02:53:40.296Z,40.30
2019-04-05T02:56:10.759Z,40.60
2019-04-05T02:58:41.266Z,44.87
2019-04-05T03:01:11.510Z,41.90
2019-04-05T03:03:41.839Z,41.50
2019-04-05T03:06:11.991Z,41.40
2019-04-05T03:08:43.069Z,40.87
2019-04-05T03:11:18.973Z,42.17
2019-04-05T03:13:51.847Z,42.60
2019-04-05T03:16:39.214Z,43.23
2019-04-05T03:19:07.824Z,41.63
2019-04-05T03:21:40.907Z,39.27
2019-04-05T03:24:13.818Z,39.90
2019-04-05T03:26:46.570Z,40.50
2019-04-05T03:29:16.652Z,40.67
2019-04-05T03:31:47.920Z,41.80
2019-04-05T03:34:17.856Z,41.20
2019-04-05T03:36:51.453Z,41.50
2019-04-05T03:39:19.550Z,41.20
2019-04-05T03:41:49.964Z,41.17
2019-04-05T03:44:23.014Z,41.10
2019-04-05T03:46:57.220Z,43.73
2019-04-05T03:49:23.985Z,38.90
2019-04-05T03:51:54.060Z,39.27
2019-04-05T03:54:23.900Z,40.70
2019-04-05T03:56:53.873Z,42.17
2019-04-05T03:59:23.803Z,39.83
2019-04-05T04:01:53.837Z,41.60
2019-04-05T04:04:23.840Z,43.20
2019-04-05T04:06:53.709Z,42.87
2019-04-05T04:09:23.528Z,42.23
2019-04-05T04:11:53.674Z,40.10
2019-04-05T04:14:23.836Z,44.23
2019-04-05T04:17:11.020Z,41.77
2019-04-05T04:19:26.639Z,40.97
2019-04-05T04:22:15.902Z,43.87
2019-04-05T04:24:45.916Z,43.90
2019-04-05T04:27:16.007Z,41.50
2019-04-05T04:29:45.835Z,44.73
2019-04-05T04:32:15.924Z,43.67
2019-04-05T04:34:45.871Z,42.17
2019-04-05T04:37:15.734Z,40.73
2019-04-05T04:39:45.659Z,42.33
2019-04-05T04:42:15.879Z,43.73
2019-04-05T04:44:45.878Z,43.00
2019-04-05T04:47:26.470Z,43.23
2019-04-05T04:49:48.858Z,41.07
2019-04-05T04:52:18.987Z,40.30
2019-04-05T04:54:48.861Z,41.33
2019-04-05T04:57:18.676Z,43.20
2019-04-05T04:59:49.030Z,40.57
2019-04-05T05:02:19.140Z,41.00
2019-04-05T05:04:49.439Z,42.40
2019-04-05T05:07:19.263Z,43.00
2019-04-05T05:09:49.139Z,42.20
2019-04-05T05:12:19.497Z,42.07
2019-04-05T05:14:49.377Z,44.33
2019-04-05T05:17:19.488Z,43.10
2019-04-05T05:19:49.388Z,42.00
2019-04-05T05:22:19.346Z,40.80
2019-04-05T05:24:49.613Z,40.67
2019-04-05T05:27:19.783Z,40.57
2019-04-05T05:29:49.906Z,41.50
2019-04-05T05:32:19.870Z,42.13
2019-04-05T05:35:01.326Z,41.20
2019-04-05T05:37:21.686Z,40.37
2019-04-05T05:39:51.474Z,42.70
2019-04-05T05:42:21.279Z,40.97
2019-04-05T05:44:51.393Z,42.67
2019-04-05T05:47:21.199Z,43.40
2019-04-05T05:49:50.974Z,41.10
2019-04-05T05:52:21.385Z,42.50
2019-04-05T05:54:51.161Z,44.30
2019-04-05T05:57:21.049Z,42.43
2019-04-05T05:59:50.859Z,45.53
2019-04-05T06:02:20.701Z,43.13
2019-04-05T06:04:50.600Z,43.23
2019-04-05T06:07:20.406Z,43.87
2019-04-05T06:09:50.584Z,42.20
2019-04-05T06:12:20.502Z,43.00
2019-04-05T06:14:50.333Z,42.83
2019-04-05T06:17:20.139Z,41.40
2019-04-05T06:19:49.961Z,41.07
2019-04-05T06:22:19.740Z,43.00
2019-04-05T06:24:49.566Z,43.60
2019-04-05T06:27:19.402Z,44.97
2019-04-05T06:29:49.370Z,42.57
2019-04-05T06:32:19.647Z,42.37
2019-04-05T06:34:49.667Z,46.13
2019-04-05T06:37:19.443Z,44.03
2019-04-05T06:39:49.392Z,46.40
2019-04-05T06:42:19.367Z,46.07
2019-04-05T06:44:49.196Z,43.27
2019-04-05T06:47:19.300Z,47.47
2019-04-05T06:49:49.139Z,44.87
2019-04-05T06:52:18.889Z,44.67
2019-04-05T06:54:48.630Z,43.90
2019-04-05T06:57:18.579Z,47.13
2019-04-05T06:59:48.438Z,44.33
2019-04-05T07:02:18.612Z,46.07
2019-04-05T07:04:48.686Z,45.27
2019-04-05T07:07:18.530Z,45.43
2019-04-05T07:09:48.405Z,47.37
2019-04-05T07:12:20.556Z,51.07
2019-04-05T07:14:49.906Z,63.90
2019-04-05T07:17:19.691Z,58.37
2019-04-05T07:19:49.514Z,66.80
2019-04-05T07:22:35.602Z,85.33
2019-04-05T07:24:50.668Z,70.53
2019-04-05T07:27:20.532Z,70.40
2019-04-05T07:29:50.358Z,66.37
2019-04-05T07:32:21.122Z,65.40
2019-04-05T07:34:51.005Z,63.27
2019-04-05T07:37:22.783Z,64.53
2019-04-05T07:39:54.325Z,61.67
2019-04-05T07:42:24.574Z,61.50
2019-04-05T07:44:54.435Z,59.40
2019-04-05T07:47:24.277Z,55.93
2019-04-05T07:49:55.526Z,57.87
2019-04-05T07:52:25.597Z,55.10
2019-04-05T07:54:56.885Z,55.50
2019-04-05T07:57:27.215Z,55.50
2019-04-05T07:59:58.539Z,55.57
2019-04-05T08:02:28.308Z,51.70
2019-04-05T08:04:58.270Z,51.50
2019-04-05T08:07:30.985Z,49.40
2019-04-05T08:10:03.004Z,51.00
2019-04-05T08:12:32.707Z,51.30
2019-04-05T08:15:03.038Z,49.23
2019-04-05T08:17:32.876Z,49.67
2019-04-05T08:20:02.661Z,48.03
2019-04-05T08:22:32.553Z,46.50
2019-04-05T08:25:02.680Z,46.97
2019-04-05T08:27:32.424Z,43.83
2019-04-05T08:30:02.188Z,46.10
2019-04-05T08:32:32.079Z,43.20
2019-04-05T08:35:01.918Z,45.33
2019-04-05T08:37:31.801Z,43.77
2019-04-05T08:40:01.632Z,41.50
2019-04-05T08:42:31.487Z,40.23
2019-04-05T08:45:01.349Z,41.33
2019-04-05T08:47:31.168Z,41.30
2019-04-05T08:50:00.914Z,42.07
2019-04-05T08:52:30.691Z,39.00
2019-04-05T08:55:00.512Z,38.73
2019-04-05T08:57:30.357Z,41.17
2019-04-05T09:00:00.244Z,40.70
2019-04-05T09:02:30.320Z,40.47
2019-04-05T09:05:00.082Z,39.60
2019-04-05T09:07:29.980Z,42.37
2019-04-05T09:10:01.490Z,39.37
2019-04-05T09:12:34.938Z,39.80
2019-04-05T09:15:08.190Z,39.17
2019-04-05T09:17:39.612Z,39.57
2019-04-05T09:20:09.580Z,39.03
2019-04-05T09:22:40.876Z,39.37
2019-04-05T09:25:10.733Z,39.40
2019-04-05T09:27:40.653Z,37.17
2019-04-05T09:30:11.054Z,36.77
2019-04-05T09:32:41.046Z,36.83
2019-04-05T09:35:10.956Z,35.77
2019-04-05T09:37:40.732Z,35.83
2019-04-05T09:40:10.569Z,36.07
2019-04-05T09:42:40.442Z,34.97
2019-04-05T09:45:10.229Z,35.27
2019-04-05T09:47:40.188Z,35.43
2019-04-05T09:50:10.632Z,34.57
2019-04-05T09:52:40.397Z,33.77
2019-04-05T09:55:11.382Z,35.40
2019-04-05T09:57:41.156Z,32.37
2019-04-05T10:00:15.506Z,34.20
2019-04-05T10:02:45.444Z,36.53
2019-04-05T10:05:15.331Z,32.73
2019-04-05T10:07:54.823Z,34.70
2019-04-05T10:10:17.151Z,34.30
2019-04-05T10:12:46.986Z,34.77
2019-04-05T10:15:16.776Z,33.40
2019-04-05T10:17:46.554Z,33.13
2019-04-05T10:20:22.485Z,34.17
2019-04-05T10:22:57.094Z,33.70
2019-04-05T10:25:27.121Z,33.37
2019-04-05T10:27:57.385Z,33.93
2019-04-05T10:30:27.280Z,33.00
2019-04-05T10:32:57.105Z,37.80
2019-04-05T10:35:26.886Z,36.20
2019-04-05T10:37:58.286Z,37.20
2019-04-05T10:40:28.164Z,37.03
2019-04-05T10:42:58.155Z,35.20
2019-04-05T10:45:27.940Z,43.93
2019-04-05T10:47:57.725Z,44.10
2019-04-05T10:50:27.613Z,39.33
2019-04-05T10:52:57.469Z,38.37
2019-04-05T10:55:27.262Z,36.00
2019-04-05T10:57:57.184Z,37.27
2019-04-05T11:00:30.184Z,35.73
2019-04-05T11:03:00.122Z,36.53
2019-04-05T11:05:29.923Z,34.80
2019-04-05T11:07:59.872Z,35.03
2019-04-05T11:10:29.660Z,33.93
2019-04-05T11:12:59.478Z,37.57
2019-04-05T11:15:31.006Z,34.77
2019-04-05T11:18:01.016Z,32.73
2019-04-05T11:20:31.015Z,32.63
2019-04-05T11:23:00.827Z,30.60
2019-04-05T11:25:30.590Z,34.00
2019-04-05T11:28:00.458Z,35.37
2019-04-05T11:30:41.918Z,33.37
2019-04-05T11:33:11.936Z,32.00
2019-04-05T11:35:42.011Z,31.03
2019-04-05T11:38:12.948Z,30.87
2019-04-05T11:40:43.536Z,31.80
2019-04-05T11:43:13.443Z,32.23
2019-04-05T11:45:44.472Z,31.27
2019-04-05T11:48:14.522Z,30.50
2019-04-05T11:50:44.441Z,31.17
2019-04-05T11:53:14.355Z,34.07
2019-04-05T11:55:46.518Z,32.63
2019-04-05T11:58:15.624Z,34.30
2019-04-05T12:00:47.063Z,36.70
2019-04-05T12:03:27.396Z,36.63
2019-04-05T12:05:57.261Z,36.10
2019-04-05T12:08:27.121Z,35.60
2019-04-05T12:10:57.004Z,34.77
2019-04-05T12:13:26.799Z,35.50
2019-04-05T12:15:58.171Z,37.23
2019-04-05T12:18:28.176Z,38.17
2019-04-05T12:21:00.572Z,34.37
2019-04-05T12:23:32.537Z,36.40
2019-04-05T12:26:03.817Z,36.77
2019-04-05T12:28:32.802Z,35.20
2019-04-05T12:31:02.478Z,35.70
2019-04-05T12:33:32.444Z,44.50
2019-04-05T12:36:02.569Z,46.20
2019-04-05T12:38:35.153Z,47.67
2019-04-05T12:41:05.649Z,45.87
2019-04-05T12:43:35.526Z,43.30
2019-04-05T12:46:06.200Z,45.73
2019-04-05T12:48:35.986Z,41.50
2019-04-05T12:51:06.006Z,40.77
2019-04-05T12:53:35.874Z,40.57
2019-04-05T12:56:06.043Z,41.07
2019-04-05T12:58:36.244Z,38.67
2019-04-05T13:01:08.285Z,37.20
2019-04-05T13:03:37.720Z,40.30
2019-04-05T13:06:07.527Z,37.20
2019-04-05T13:08:37.309Z,40.00
2019-04-05T13:11:07.237Z,39.23
2019-04-05T13:13:36.983Z,38.97
2019-04-05T13:16:09.904Z,36.03
2019-04-05T13:18:38.309Z,37.03
2019-04-05T13:21:15.279Z,39.00
2019-04-05T13:23:39.534Z,38.13
2019-04-05T13:26:11.464Z,38.20
2019-04-05T13:28:40.822Z,39.90
2019-04-05T13:31:10.610Z,38.93
2019-04-05T13:33:40.616Z,37.70
2019-04-05T13:36:10.655Z,37.67
2019-04-05T13:38:40.489Z,41.10
2019-04-05T13:41:10.337Z,39.00
2019-04-05T13:43:40.207Z,37.00
2019-04-05T13:46:21.319Z,39.50
2019-04-05T13:48:41.623Z,39.77
2019-04-05T13:51:12.905Z,40.00
2019-04-05T13:53:43.108Z,37.50
2019-04-05T13:56:12.944Z,36.23
2019-04-05T13:58:46.165Z,38.60
2019-04-05T14:01:14.346Z,39.97
2019-04-05T14:03:44.143Z,40.10
2019-04-05T14:06:13.972Z,37.83
2019-04-05T14:08:43.765Z,37.17
2019-04-05T14:11:13.597Z,38.10
2019-04-05T14:13:43.419Z,38.43
2019-04-05T14:16:13.315Z,40.40
2019-04-05T14:18:49.373Z,38.17
2019-04-05T14:21:14.546Z,38.50
2019-04-05T14:23:44.365Z,37.83
2019-04-05T14:26:14.207Z,38.87
2019-04-05T14:28:44.051Z,39.53
2019-04-05T14:31:13.829Z,38.13
2019-04-05T14:33:43.651Z,38.30
2019-04-05T14:36:13.697Z,39.07
2019-04-05T14:38:43.489Z,38.70
2019-04-05T14:41:13.259Z,39.80
2019-04-05T14:43:45.057Z,36.17
2019-04-05T14:46:14.394Z,40.10
2019-04-05T14:48:44.199Z,42.03
2019-04-05T14:51:13.937Z,39.77
2019-04-05T14:53:43.770Z,39.00
2019-04-05T14:56:13.872Z,39.57
2019-04-05T14:58:43.667Z,38.87
2019-04-05T15:01:15.536Z,39.33
2019-04-05T15:03:44.950Z,37.60
2019-04-05T15:06:14.847Z,40.63
2019-04-05T15:08:47.591Z,39.53
2019-04-05T15:11:16.088Z,37.60
2019-04-05T15:13:45.879Z,38.80
2019-04-05T15:16:15.693Z,38.03
2019-04-05T15:18:45.484Z,39.90
2019-04-05T17:22:02.120Z,38.00
2019-04-05T17:24:32.447Z,34.53
2019-04-05T17:27:02.815Z,40.03
2019-04-05T17:29:33.034Z,40.00
2019-04-05T17:32:03.315Z,38.43
2019-04-05T17:34:33.533Z,40.17
2019-04-05T17:37:03.754Z,38.90
2019-04-05T17:39:34.285Z,39.57
2019-04-05T17:42:10.342Z,39.30
2019-04-05T17:44:40.565Z,39.10
2019-04-05T17:47:10.892Z,40.53
2019-04-05T17:49:41.006Z,42.40
2019-04-05T17:52:11.130Z,39.37
2019-04-05T17:54:41.246Z,40.30
2019-04-05T17:57:11.754Z,40.77
2019-04-05T17:59:42.175Z,39.50
2019-04-05T18:02:12.327Z,39.70
2019-04-05T18:04:42.442Z,40.20
2019-04-05T18:07:19.011Z,39.10
2019-04-05T18:09:49.335Z,40.40
2019-04-05T18:12:19.461Z,39.57
2019-04-05T18:14:50.089Z,38.60
2019-04-05T18:17:20.515Z,37.40
2019-04-05T18:19:50.835Z,35.47
2019-04-05T18:22:20.955Z,39.87
2019-04-05T18:24:51.278Z,39.00
2019-04-05T18:27:21.498Z,39.30
2019-04-05T18:29:51.831Z,37.23
2019-04-05T18:32:21.876Z,38.17
2019-04-05T18:34:52.164Z,38.97
2019-04-05T18:37:22.490Z,38.60
2019-04-05T18:39:53.153Z,36.10
2019-04-05T18:42:23.348Z,36.73
2019-04-05T18:44:56.534Z,38.47
2019-04-05T18:47:26.762Z,38.47
2019-04-05T18:50:02.960Z,39.27
2019-04-05T18:52:28.939Z,37.30
2019-04-05T18:54:59.263Z,38.00
2019-04-05T18:57:29.592Z,37.47
2019-04-05T18:59:59.706Z,37.83
2019-04-05T19:02:29.937Z,35.23
2019-04-05T19:05:00.047Z,37.33
2019-04-05T19:07:30.214Z,36.83
2019-04-05T19:10:00.599Z,36.27
2019-04-05T19:12:30.951Z,37.77
2019-04-05T19:15:01.280Z,39.90
2019-04-05T19:17:31.575Z,38.50
2019-04-05T19:20:02.012Z,36.40
2019-04-05T19:22:32.312Z,36.80
2019-04-05T19:25:07.862Z,35.97
2019-04-05T19:27:41.258Z,34.40
2019-04-05T19:50:26.093Z,36.80
2019-04-05T19:52:56.381Z,37.63
2019-04-05T19:55:26.598Z,38.83
2019-04-05T19:57:56.716Z,40.40
2019-04-05T20:00:26.972Z,38.00
2019-04-05T20:02:57.158Z,38.70
2019-04-05T20:05:27.384Z,39.30
2019-04-05T20:07:57.606Z,38.83
2019-04-05T20:10:27.722Z,40.30
2019-04-05T20:13:00.712Z,38.07
2019-04-05T20:15:31.033Z,40.03
2019-04-05T20:18:01.457Z,39.20
2019-04-05T20:20:31.712Z,38.40
2019-04-05T20:23:01.916Z,38.13
2019-04-05T20:25:32.224Z,41.00
2019-04-05T20:28:02.352Z,40.63
2019-04-05T20:30:32.465Z,41.30
2019-04-05T20:33:02.684Z,38.30
2019-04-05T20:35:32.805Z,41.57
2019-04-05T20:38:02.935Z,41.13
2019-04-05T20:40:33.147Z,40.83
2019-04-05T20:43:03.680Z,40.67
2019-04-05T20:45:33.817Z,44.77
2019-04-05T20:48:03.913Z,41.40
2019-04-05T20:50:37.043Z,41.30
2019-04-05T20:53:07.225Z,40.60
2019-04-05T20:55:40.209Z,43.10
2019-04-05T20:58:11.605Z,43.13
2019-04-05T21:00:44.544Z,43.70
2019-04-05T21:03:14.663Z,39.97
2019-04-05T21:05:44.782Z,42.67
2019-04-05T21:08:15.004Z,44.60
2019-04-05T21:10:45.129Z,42.60
2019-04-05T21:13:15.181Z,44.30
2019-04-05T21:15:45.267Z,46.20
2019-04-05T21:18:15.377Z,43.53
2019-04-05T21:20:46.382Z,44.97
2019-04-05T21:23:16.653Z,43.90
2019-04-05T21:25:47.502Z,42.17
2019-04-05T21:28:17.698Z,42.70
2019-04-05T21:30:47.823Z,45.07
2019-04-05T21:33:17.947Z,46.57
2019-04-05T21:35:48.679Z,46.10
2019-04-05T21:38:18.802Z,44.83
2019-04-05T21:40:48.908Z,44.53
2019-04-05T21:43:19.030Z,45.57
2019-04-05T21:45:49.251Z,44.50
2019-04-05T21:48:19.377Z,44.83
2019-04-05T21:50:49.492Z,44.03
2019-04-05T21:53:19.818Z,45.60
2019-04-05T21:55:49.934Z,50.47
2019-04-05T21:58:20.253Z,47.07
2019-04-05T22:00:52.632Z,48.30
2019-04-05T22:03:22.849Z,47.97
2019-04-05T22:05:52.968Z,51.07
2019-04-05T22:08:23.295Z,48.40
2019-04-05T22:10:53.616Z,50.20
2019-04-05T22:13:23.943Z,47.90
2019-04-05T22:15:54.572Z,48.33
2019-04-05T22:18:24.791Z,48.57
2019-04-05T22:20:55.119Z,49.87
2019-04-05T22:23:25.236Z,47.00
2019-04-05T22:25:55.359Z,47.43
2019-04-05T22:28:25.679Z,49.10
2019-04-05T22:30:55.901Z,47.77
2019-04-05T22:33:26.132Z,51.23
2019-04-05T22:35:56.346Z,50.17
2019-04-05T22:38:26.670Z,51.23
2019-04-05T22:40:56.788Z,49.23
2019-04-05T22:43:27.053Z,47.40
2019-04-05T22:45:57.334Z,52.20
2019-04-05T22:48:27.458Z,48.20
2019-04-05T22:50:57.674Z,50.60
2019-04-05T22:53:27.792Z,51.03
2019-04-05T22:55:57.913Z,49.00
2019-04-05T22:58:28.032Z,47.97
2019-04-05T23:00:58.156Z,48.83
2019-04-05T23:03:28.472Z,51.63
2019-04-05T23:05:58.696Z,51.30
2019-04-05T23:08:28.816Z,51.30
2019-04-05T23:10:59.036Z,47.50
2019-04-05T23:13:31.933Z,47.17
2019-04-05T23:16:02.245Z,47.30
2019-04-05T23:18:32.366Z,49.77
2019-04-05T23:21:02.483Z,51.40
2019-04-05T23:23:32.702Z,50.93
2019-04-05T23:26:03.033Z,46.60
2019-04-05T23:28:33.146Z,51.83
2019-04-05T23:31:03.472Z,49.83
2019-04-05T23:33:33.596Z,50.33
2019-04-05T23:36:04.017Z,45.63
2019-04-05T23:38:34.171Z,50.03
2019-04-05T23:41:04.393Z,48.93
2019-04-05T23:43:36.329Z,49.90
2019-04-05T23:46:06.346Z,52.43
2019-04-05T23:48:36.565Z,51.20
2019-04-05T23:51:06.679Z,51.00
2019-04-05T23:53:36.695Z,51.47
2019-04-05T23:56:06.920Z,52.17
2019-04-05T23:58:37.033Z,52.20
